Time;durP1;ratioP1;P1;durP2;ratioP2;P2;SDS_P1;SDS_P2;PMS_P1;PMS_P2;Temp;Humidity;BMP_temperature;BMP_pressure;BME280_temperature;BME280_humidity;BME280_pressure;Samples;Min_cycle;Max_cycle;Signal;HPM_P1;HPM_P2
2021/03/07 00:00:27;;;;;;;2.95;2.10;;;17.80;49.40;;;;;;5127992;27;20221;-57
2021/03/07 00:02:53;;;;;;;4.05;2.50;;;17.80;49.40;;;;;;5127705;27;20256;-55
2021/03/07 00:05:19;;;;;;;2.75;2.03;;;17.80;49.50;;;;;;5127787;27;20324;-51
2021/03/07 00:07:45;;;;;;;3.50;2.40;;;17.80;49.40;;;;;;5127486;27;20563;-53
2021/03/07 00:10:11;;;;;;;3.90;2.30;;;17.80;49.40;;;;;;5127292;27;20172;-53
2021/03/07 00:12:37;;;;;;;2.70;2.10;;;17.80;49.40;;;;;;5126446;27;20259;-55
2021/03/07 00:15:07;;;;;;;2.80;2.08;;;17.70;49.30;;;;;;5127598;27;20301;-56
2021/03/07 00:17:32;;;;;;;3.45;2.38;;;17.70;49.30;;;;;;5127396;27;20176;-56
2021/03/07 00:19:58;;;;;;;2.30;2.00;;;17.70;49.20;;;;;;5127394;27;20176;-55
2021/03/07 00:22:24;;;;;;;2.60;1.92;;;17.70;49.30;;;;;;5127466;27;20180;-54
2021/03/07 00:24:49;;;;;;;2.63;2.42;;;17.70;49.20;;;;;;5127752;27;20183;-53
2021/03/07 00:27:15;;;;;;;4.25;2.65;;;17.60;49.20;;;;;;5127012;27;20168;-55
2021/03/07 00:29:40;;;;;;;2.50;1.73;;;17.70;49.90;;;;;;5127392;27;20177;-51
2021/03/07 00:32:06;;;;;;;3.35;2.28;;;17.60;49.20;;;;;;5126918;27;20172;-56
2021/03/07 00:34:31;;;;;;;2.40;2.20;;;17.60;49.20;;;;;;5127112;27;20664;-54
2021/03/07 00:36:57;;;;;;;3.20;1.75;;;17.60;49.20;;;;;;5126895;27;20176;-53
2021/03/07 00:39:23;;;;;;;2.35;2.15;;;17.60;49.20;;;;;;5127257;27;20637;-56
2021/03/07 00:41:48;;;;;;;2.20;1.90;;;17.60;49.20;;;;;;5126961;27;20251;-53
2021/03/07 00:44:14;;;;;;;2.85;2.20;;;17.60;49.30;;;;;;5126854;27;20204;-52
2021/03/07 00:46:44;;;;;;;2.60;2.10;;;17.50;49.20;;;;;;5127052;27;20211;-50
2021/03/07 00:49:10;;;;;;;2.00;1.80;;;17.50;49.20;;;;;;5126546;27;20661;-56
2021/03/07 00:51:36;;;;;;;1.70;1.60;;;17.50;49.20;;;;;;5126557;27;20173;-57
2021/03/07 00:54:01;;;;;;;2.85;1.92;;;17.50;49.20;;;;;;5126696;27;20180;-56
2021/03/07 00:56:27;;;;;;;3.42;2.20;;;17.50;49.20;;;;;;5126759;27;20168;-50
2021/03/07 00:58:52;;;;;;;2.40;2.20;;;17.50;49.20;;;;;;5126905;27;20179;-56
2021/03/07 01:01:18;;;;;;;3.03;2.00;;;17.50;49.20;;;;;;5126487;27;20960;-53
2021/03/07 01:03:44;;;;;;;2.05;1.85;;;17.50;49.20;;;;;;5126532;27;20233;-49
2021/03/07 01:06:09;;;;;;;2.17;1.80;;;17.40;49.10;;;;;;5126257;27;20209;-53
2021/03/07 01:08:35;;;;;;;2.53;1.90;;;17.40;49.10;;;;;;5126078;27;20333;-51
2021/03/07 01:11:01;;;;;;;2.88;2.00;;;17.40;49.10;;;;;;5126314;27;20180;-49
2021/03/07 01:13:26;;;;;;;3.05;1.92;;;17.40;49.10;;;;;;5126309;27;20179;-52
2021/03/07 01:15:52;;;;;;;2.50;2.10;;;17.40;49.10;;;;;;5126115;27;20835;-54
2021/03/07 01:18:18;;;;;;;2.03;1.70;;;17.40;49.10;;;;;;5125936;27;20211;-53
2021/03/07 01:20:44;;;;;;;2.63;2.10;;;17.40;49.10;;;;;;5125974;27;20176;-56
2021/03/07 01:23:09;;;;;;;2.58;1.77;;;17.40;49.10;;;;;;5125563;27;20381;-48
2021/03/07 01:25:35;;;;;;;1.80;1.70;;;17.30;49.00;;;;;;5125589;27;20188;-51
2021/03/07 01:28:01;;;;;;;1.95;1.83;;;17.30;49.00;;;;;;5126114;27;20200;-51
2021/03/07 01:30:27;;;;;;;2.45;2.00;;;17.30;49.60;;;;;;5126134;27;20279;-51
2021/03/07 01:32:52;;;;;;;2.15;1.88;;;17.30;49.00;;;;;;5125496;27;20283;-50
2021/03/07 01:35:19;;;;;;;2.95;1.63;;;17.30;48.90;;;;;;5125917;27;20176;-52
2021/03/07 01:37:44;;;;;;;2.47;1.92;;;17.30;49.00;;;;;;5125784;27;20195;-51
2021/03/07 01:40:12;;;;;;;2.45;1.98;;;17.30;49.00;;;;;;5125607;27;20625;-50
2021/03/07 01:42:42;;;;;;;3.35;2.20;;;17.20;49.00;;;;;;5125713;27;20618;-52
2021/03/07 01:45:08;;;;;;;2.38;1.73;;;17.20;49.00;;;;;;5125358;27;20191;-53
2021/03/07 01:47:34;;;;;;;2.58;2.08;;;17.20;48.90;;;;;;5125258;27;20571;-53
2021/03/07 01:50:00;;;;;;;3.72;1.90;;;17.20;48.90;;;;;;5106830;27;20203;-51
2021/03/07 01:52:25;;;;;;;2.25;2.05;;;17.20;48.90;;;;;;5107147;27;20219;-53
2021/03/07 01:54:51;;;;;;;2.83;2.03;;;17.20;48.90;;;;;;5107380;27;21067;-52
2021/03/07 01:57:18;;;;;;;2.35;2.05;;;17.20;48.80;;;;;;5125508;27;20227;-53
2021/03/07 01:59:44;;;;;;;2.83;1.98;;;17.20;48.90;;;;;;5106832;27;20184;-51
2021/03/07 02:02:09;;;;;;;2.95;1.85;;;17.10;48.80;;;;;;5106749;27;20191;-52
2021/03/07 02:04:35;;;;;;;2.08;1.75;;;17.10;48.90;;;;;;5125417;27;20175;-52
2021/03/07 02:07:00;;;;;;;2.00;1.80;;;17.10;48.90;;;;;;5106969;27;20188;-55
2021/03/07 02:09:26;;;;;;;2.38;1.80;;;17.10;48.80;;;;;;5125441;27;20240;-53
2021/03/07 02:11:51;;;;;;;2.38;1.80;;;17.10;48.80;;;;;;5106772;27;20184;-54
2021/03/07 02:14:17;;;;;;;1.83;1.40;;;17.10;48.80;;;;;;5089947;27;20180;-52
2021/03/07 02:16:43;;;;;;;2.10;1.70;;;17.10;48.80;;;;;;5089822;27;20259;-52
2021/03/07 02:19:08;;;;;;;2.17;1.65;;;17.10;48.80;;;;;;5090139;27;20175;-55
2021/03/07 02:21:43;;;;;;;2.08;1.83;;;17.10;48.80;;;;;;5124955;27;20610;-51
2021/03/07 02:24:10;;;;;;;2.40;1.88;;;17.10;48.90;;;;;;5125351;27;20179;-55
2021/03/07 02:26:38;;;;;;;2.10;1.83;;;17.00;48.80;;;;;;5090097;27;20930;-54
2021/03/07 02:29:04;;;;;;;1.90;1.80;;;17.00;48.80;;;;;;5124642;27;21127;-51
2021/03/07 02:31:30;;;;;;;1.77;1.67;;;17.00;48.80;;;;;;5106615;28;20185;-47
2021/03/07 02:34:04;;;;;;;3.10;1.80;;;17.00;48.80;;;;;;5108445;27;20278;-48
2021/03/07 02:36:31;;;;;;;1.67;1.50;;;17.00;48.80;;;;;;5114364;27;20771;-51
2021/03/07 02:38:57;;;;;;;1.90;1.70;;;17.00;48.80;;;;;;5096923;27;20168;-55
2021/03/07 02:41:22;;;;;;;2.05;1.73;;;17.00;48.80;;;;;;5096639;27;20555;-56
2021/03/07 02:43:52;;;;;;;2.15;1.77;;;17.00;48.80;;;;;;5096265;27;20191;-54
2021/03/07 02:46:18;;;;;;;1.50;1.40;;;17.00;48.80;;;;;;5132011;27;20171;-53
2021/03/07 02:48:51;;;;;;;1.70;1.60;;;17.00;48.80;;;;;;5113101;27;20208;-51
2021/03/07 02:51:17;;;;;;;2.20;2.00;;;16.90;48.70;;;;;;5131789;27;20259;-54
2021/03/07 02:53:42;;;;;;;1.80;1.60;;;16.90;48.80;;;;;;5113578;27;20713;-54
2021/03/07 02:56:11;;;;;;;2.30;1.75;;;16.90;48.70;;;;;;5131897;27;20181;-56
2021/03/07 02:58:37;;;;;;;1.63;1.50;;;16.90;48.80;;;;;;5131691;27;20272;-56
2021/03/07 03:01:05;;;;;;;2.33;1.63;;;16.90;48.80;;;;;;5113613;27;20179;-54
2021/03/07 03:03:35;;;;;;;1.98;1.42;;;16.90;48.80;;;;;;5131411;27;20309;-56
2021/03/07 03:06:00;;;;;;;2.03;1.60;;;16.90;48.80;;;;;;5113277;27;20172;-53
2021/03/07 03:08:28;;;;;;;1.88;1.60;;;16.90;48.80;;;;;;5096027;27;20677;-50
2021/03/07 03:10:54;;;;;;;2.10;1.90;;;16.80;48.70;;;;;;5112931;27;20644;-53
2021/03/07 03:13:19;;;;;;;1.40;1.30;;;16.80;48.70;;;;;;5112858;27;20644;-52
2021/03/07 03:15:45;;;;;;;1.95;1.80;;;16.80;48.70;;;;;;5113497;27;20168;-52
2021/03/07 03:18:11;;;;;;;2.10;1.90;;;16.80;48.70;;;;;;5131215;27;20201;-50
2021/03/07 03:20:36;;;;;;;1.85;1.75;;;16.80;48.70;;;;;;5096059;27;20164;-54
2021/03/07 03:23:02;;;;;;;2.60;1.58;;;16.80;48.70;;;;;;5113271;27;20205;-53
2021/03/07 03:25:28;;;;;;;2.28;1.60;;;16.80;48.70;;;;;;5131194;27;20183;-52
2021/03/07 03:27:56;;;;;;;1.85;1.63;;;16.80;48.70;;;;;;5113050;27;20573;-56
2021/03/07 03:30:22;;;;;;;2.15;1.83;;;16.80;48.70;;;;;;5131148;27;20176;-52
2021/03/07 03:32:48;;;;;;;1.67;1.52;;;16.70;48.60;;;;;;5130793;27;20537;-54
2021/03/07 03:35:15;;;;;;;2.10;1.80;;;16.80;48.70;;;;;;5131325;27;20176;-49
2021/03/07 03:37:41;;;;;;;2.63;1.73;;;16.70;48.60;;;;;;5131133;27;20176;-50
2021/03/07 03:40:08;;;;;;;1.73;1.58;;;16.70;48.60;;;;;;5131200;27;20178;-52
2021/03/07 03:42:38;;;;;;;2.22;2.03;;;16.70;48.60;;;;;;5130919;27;20200;-49
2021/03/07 03:45:05;;;;;;;1.58;1.38;;;16.70;48.60;;;;;;5112872;27;20200;-52
2021/03/07 03:47:31;;;;;;;2.03;1.55;;;16.70;48.60;;;;;;5109621;27;20235;-53
2021/03/07 03:49:59;;;;;;;1.95;1.60;;;16.70;48.60;;;;;;5127975;27;20676;-54
2021/03/07 03:52:25;;;;;;;1.45;1.35;;;16.70;48.60;;;;;;5127696;27;20207;-54
2021/03/07 03:54:56;;;;;;;1.80;1.55;;;16.70;48.60;;;;;;5127540;27;20173;-54
2021/03/07 03:57:25;;;;;;;1.67;1.50;;;16.60;48.50;;;;;;5127406;27;20203;-51
2021/03/07 03:59:51;;;;;;;1.85;1.50;;;16.70;48.60;;;;;;5109274;27;20176;-54
2021/03/07 04:02:16;;;;;;;2.75;2.00;;;16.60;48.60;;;;;;5092654;27;20541;-52
2021/03/07 04:04:42;;;;;;;1.92;1.27;;;16.60;48.60;;;;;;5109383;27;20169;-51
2021/03/07 04:07:08;;;;;;;2.28;1.52;;;16.60;48.60;;;;;;5092126;27;20252;-50
2021/03/07 04:09:34;;;;;;;1.90;1.67;;;16.60;48.60;;;;;;5108823;27;20326;-51
2021/03/07 04:12:00;;;;;;;2.10;1.90;;;16.60;48.60;;;;;;5092516;27;20496;-51
2021/03/07 04:14:25;;;;;;;2.00;1.50;;;16.60;48.60;;;;;;5092315;27;21017;-52
2021/03/07 04:16:51;;;;;;;2.08;1.40;;;16.60;48.60;;;;;;5108964;27;20172;-51
2021/03/07 04:19:17;;;;;;;1.70;1.60;;;16.60;48.60;;;;;;5108859;27;20230;-51
2021/03/07 04:21:43;;;;;;;2.10;1.90;;;16.50;48.50;;;;;;5127252;27;20177;-51
2021/03/07 04:24:09;;;;;;;1.95;1.85;;;16.50;48.60;;;;;;5108960;27;20174;-53
2021/03/07 04:26:35;;;;;;;2.35;1.35;;;16.50;48.50;;;;;;5108785;27;20180;-49
2021/03/07 04:29:01;;;;;;;1.70;1.40;;;16.50;48.60;;;;;;5126976;27;20203;-52
2021/03/07 04:31:26;;;;;;;1.60;1.50;;;16.50;48.60;;;;;;5108824;27;20689;-50
2021/03/07 04:33:52;;;;;;;1.63;1.52;;;16.50;48.60;;;;;;5108487;27;20732;-51
2021/03/07 04:36:17;;;;;;;1.73;1.63;;;16.50;48.50;;;;;;5127121;27;20581;-51
2021/03/07 04:38:43;;;;;;;2.10;1.55;;;16.50;48.60;;;;;;5091794;27;20176;-50
2021/03/07 04:41:09;;;;;;;1.65;1.55;;;16.40;48.50;;;;;;5126972;27;20176;-50
2021/03/07 04:43:48;;;;;;;1.50;1.40;;;16.50;48.60;;;;;;5108611;27;20192;-50
2021/03/07 04:46:15;;;;;;;2.03;1.70;;;16.40;48.50;;;;;;5126772;27;20177;-53
2021/03/07 04:48:41;;;;;;;2.10;1.65;;;16.40;48.50;;;;;;5107912;27;20743;-54
2021/03/07 04:51:06;;;;;;;1.80;1.70;;;16.40;48.50;;;;;;5126784;27;20208;-50
2021/03/07 04:53:32;;;;;;;1.50;1.40;;;16.40;48.50;;;;;;5126942;27;20658;-52
2021/03/07 04:55:57;;;;;;;1.67;1.58;;;16.40;48.50;;;;;;5126449;27;20275;-57
2021/03/07 04:58:23;;;;;;;1.73;1.60;;;16.40;48.50;;;;;;5125901;27;20177;-52
2021/03/07 05:00:48;;;;;;;1.70;1.50;;;16.40;48.60;;;;;;5126501;27;20173;-52
2021/03/07 05:03:14;;;;;;;1.63;1.52;;;16.30;48.50;;;;;;5126355;27;20877;-50
2021/03/07 05:05:40;;;;;;;1.48;1.20;;;16.30;48.50;;;;;;5126179;27;20177;-52
2021/03/07 05:08:06;;;;;;;1.83;1.50;;;16.30;48.50;;;;;;5125943;27;20731;-54
2021/03/07 05:10:32;;;;;;;1.45;1.35;;;16.30;48.50;;;;;;5125974;27;20181;-48
2021/03/07 05:12:58;;;;;;;1.95;1.73;;;16.30;48.60;;;;;;5126344;27;20167;-49
2021/03/07 05:15:23;;;;;;;1.55;1.40;;;16.30;48.50;;;;;;5126201;27;20253;-50
2021/03/07 05:17:49;;;;;;;2.08;1.60;;;16.30;48.50;;;;;;5126210;27;20176;-52
2021/03/07 05:20:15;;;;;;;2.70;1.67;;;16.30;48.50;;;;;;5126286;27;20621;-54
2021/03/07 05:22:40;;;;;;;1.60;1.50;;;16.30;48.50;;;;;;5125948;27;20231;-50
2021/03/07 05:25:06;;;;;;;1.75;1.65;;;16.30;48.50;;;;;;5126085;27;20177;-53
2021/03/07 05:27:32;;;;;;;1.40;1.30;;;16.30;48.50;;;;;;5125858;27;20180;-53
2021/03/07 05:29:57;;;;;;;1.50;1.40;;;16.20;48.50;;;;;;5125861;27;20637;-53
2021/03/07 05:32:23;;;;;;;1.50;1.15;;;16.20;48.50;;;;;;5125722;27;20630;-51
2021/03/07 05:34:48;;;;;;;2.10;1.67;;;16.20;48.50;;;;;;5125818;27;20169;-51
2021/03/07 05:37:14;;;;;;;2.28;1.67;;;16.20;48.50;;;;;;5125857;27;20180;-52
2021/03/07 05:39:39;;;;;;;2.25;1.30;;;16.20;48.60;;;;;;5125851;27;20180;-52
2021/03/07 05:42:05;;;;;;;1.33;1.23;;;16.20;48.50;;;;;;5125947;27;20176;-57
2021/03/07 05:44:30;;;;;;;1.45;1.35;;;16.20;48.50;;;;;;5107931;27;20171;-54
2021/03/07 05:46:56;;;;;;;1.88;1.52;;;16.20;48.60;;;;;;5090532;27;20607;-53
2021/03/07 05:49:22;;;;;;;1.40;1.23;;;16.20;48.60;;;;;;5125604;27;20205;-55
2021/03/07 05:51:47;;;;;;;2.17;1.50;;;16.20;48.60;;;;;;5125898;27;20571;-54
2021/03/07 05:54:13;;;;;;;1.70;1.60;;;16.10;48.50;;;;;;5125637;27;20176;-54
2021/03/07 05:56:39;;;;;;;1.40;1.30;;;16.10;48.60;;;;;;5090359;27;20180;-54
2021/03/07 05:59:04;;;;;;;2.08;1.75;;;16.10;48.60;;;;;;5107218;27;20204;-51
2021/03/07 06:01:30;;;;;;;1.60;1.48;;;16.20;48.70;;;;;;5107112;27;20268;-54
2021/03/07 06:04:01;;;;;;;1.92;1.73;;;16.10;48.70;;;;;;5125343;27;20177;-51
2021/03/07 06:06:29;;;;;;;1.73;1.63;;;16.10;48.50;;;;;;5125227;27;20169;-53
2021/03/07 06:09:17;;;;;;;1.40;1.20;;;16.10;48.40;;;;;;5124533;27;20226;-54
2021/03/07 06:11:43;;;;;;;1.77;1.30;;;16.30;48.60;;;;;;5125476;27;20210;-55
2021/03/07 06:14:25;;;;;;;1.83;1.45;;;16.40;48.60;;;;;;5125183;27;20941;-51
2021/03/07 06:17:02;;;;;;;1.42;1.10;;;16.70;48.20;;;;;;5125312;27;20176;-56
2021/03/07 06:19:27;;;;;;;1.13;1.10;;;17.10;47.90;;;;;;5125117;27;20175;-53
2021/03/07 06:21:53;;;;;;;1.55;1.27;;;17.40;47.50;;;;;;5125062;27;20502;-50
2021/03/07 06:24:36;;;;;;;1.90;1.45;;;17.70;47.10;;;;;;5125161;27;20172;-51
2021/03/07 06:27:03;;;;;;;1.35;1.25;;;18.00;46.60;;;;;;5124928;27;20168;-55
2021/03/07 06:29:28;;;;;;;1.30;1.20;;;18.30;46.10;;;;;;5125049;27;20207;-49
2021/03/07 06:31:54;;;;;;;1.40;1.30;;;18.50;45.60;;;;;;5125175;27;20528;-51
2021/03/07 06:34:19;;;;;;;1.70;1.17;;;18.70;45.30;;;;;;5125348;28;20177;-53
2021/03/07 06:36:45;;;;;;;1.10;1.00;;;18.70;45.20;;;;;;5124999;28;20218;-51
2021/03/07 06:39:10;;;;;;;1.30;1.20;;;18.80;45.10;;;;;;5124853;28;20194;-55
2021/03/07 06:41:36;;;;;;;1.23;1.13;;;18.80;45.10;;;;;;5125377;28;20234;-52
2021/03/07 06:44:18;;;;;;;1.23;1.13;;;18.90;45.10;;;;;;5124846;28;20203;-55
2021/03/07 06:46:45;;;;;;;1.10;1.00;;;18.90;45.10;;;;;;5124388;28;20184;-53
2021/03/07 06:49:27;;;;;;;1.20;1.02;;;18.80;45.10;;;;;;5124784;28;20299;-54
2021/03/07 06:51:55;;;;;;;1.23;1.08;;;18.80;45.10;;;;;;5125029;28;20179;-55
2021/03/07 06:54:21;;;;;;;1.27;1.05;;;18.80;45.20;;;;;;5124466;28;20184;-55
2021/03/07 06:56:48;;;;;;;1.02;0.95;;;18.80;45.20;;;;;;5124875;28;20204;-57
2021/03/07 06:59:18;;;;;;;0.75;0.75;;;18.80;45.30;;;;;;5124431;28;20268;-50
2021/03/07 07:01:45;;;;;;;2.97;0.98;;;18.80;45.30;;;;;;5124554;28;20690;-51
2021/03/07 07:04:11;;;;;;;1.13;1.02;;;18.70;45.40;;;;;;5124604;28;20245;-48
2021/03/07 07:06:38;;;;;;;1.17;1.02;;;18.60;45.60;;;;;;5124138;28;20173;-51
2021/03/07 07:09:07;;;;;;;1.23;1.10;;;18.60;45.70;;;;;;5124545;28;20226;-51
2021/03/07 07:11:45;;;;;;;1.33;0.80;;;18.40;45.90;;;;;;5106241;28;20288;-50
2021/03/07 07:14:12;;;;;;;1.10;1.00;;;18.40;46.00;;;;;;5124827;28;20177;-56
2021/03/07 07:16:37;;;;;;;1.75;1.13;;;18.30;46.10;;;;;;5125053;28;20176;-54
2021/03/07 07:19:03;;;;;;;1.10;1.00;;;18.40;46.10;;;;;;5124773;28;20176;-54
2021/03/07 07:21:29;;;;;;;1.20;1.10;;;18.30;46.10;;;;;;5127160;27;20168;-53
2021/03/07 07:23:54;;;;;;;1.33;1.10;;;18.40;46.10;;;;;;5128510;27;21058;-51
2021/03/07 07:26:20;;;;;;;0.95;0.90;;;18.30;46.10;;;;;;5128256;27;20180;-49
2021/03/07 07:28:46;;;;;;;1.10;1.00;;;18.30;46.10;;;;;;5128158;27;20215;-51
2021/03/07 07:31:23;;;;;;;1.10;1.05;;;18.40;46.10;;;;;;5128377;27;20183;-48
2021/03/07 07:33:57;;;;;;;1.35;1.23;;;18.40;46.10;;;;;;5128452;27;20171;-49
2021/03/07 07:36:37;;;;;;;1.17;1.08;;;18.40;46.10;;;;;;5109932;27;20168;-51
2021/03/07 07:39:04;;;;;;;1.27;0.80;;;18.40;46.00;;;;;;5128067;27;20184;-52
2021/03/07 07:41:35;;;;;;;1.38;0.90;;;18.40;46.00;;;;;;5109843;27;20168;-53
2021/03/07 07:44:01;;;;;;;1.10;1.00;;;18.40;46.20;;;;;;5128548;27;20172;-50
2021/03/07 07:46:27;;;;;;;1.08;0.90;;;18.30;46.30;;;;;;5110116;27;20169;-55
2021/03/07 07:48:52;;;;;;;1.20;1.10;;;18.30;46.50;;;;;;5127829;27;20677;-54
2021/03/07 07:51:38;;;;;;;0.93;0.93;;;18.20;46.60;;;;;;5128150;27;20169;-54
2021/03/07 07:54:06;;;;;;;1.10;1.00;;;18.20;46.70;;;;;;5127314;27;20689;-50
2021/03/07 07:56:35;;;;;;;1.20;1.10;;;18.20;46.70;;;;;;5127592;27;20212;-51
2021/03/07 07:59:00;;;;;;;1.02;0.93;;;18.20;46.70;;;;;;5127816;27;20195;-53
2021/03/07 08:01:58;;;;;;;1.05;0.95;;;18.20;46.60;;;;;;5127636;27;20528;-55
2021/03/07 08:04:29;;;;;;;1.35;1.15;;;18.30;46.60;;;;;;5121445;27;20257;-55
2021/03/07 08:06:59;;;;;;;1.10;1.10;;;18.30;46.60;;;;;;5127720;27;20256;-61
2021/03/07 08:09:48;;;;;;;6.95;1.20;;;18.40;46.60;;;;;;5109420;27;20605;-62
2021/03/07 08:12:42;;;;;;;2.05;1.60;;;18.40;46.60;;;;;;5127349;27;20368;-60
2021/03/07 08:15:26;;;;;;;2.45;1.88;;;18.40;46.60;;;;;;5127182;27;20173;-60
2021/03/07 08:17:52;;;;;;;5.63;1.30;;;18.50;47.00;;;;;;5127200;27;20172;-57
2021/03/07 08:20:40;;;;;;;1.33;1.20;;;18.50;47.20;;;;;;5127340;27;20499;-58
2021/03/07 08:23:16;;;;;;;1.85;1.63;;;18.40;47.20;;;;;;5127390;27;20176;-60
2021/03/07 08:25:51;;;;;;;1.90;1.33;;;18.40;47.40;;;;;;5127500;27;20176;-61
2021/03/07 08:28:25;;;;;;;1.85;1.33;;;18.30;47.50;;;;;;5126911;27;20218;-57
2021/03/07 08:30:52;;;;;;;1.42;1.17;;;18.30;47.70;;;;;;5127069;27;20179;-58
2021/03/07 08:33:39;;;;;;;3.53;1.40;;;18.20;47.60;;;;;;5126185;27;20191;-60
2021/03/07 08:36:15;;;;;;;1.52;1.15;;;18.30;47.70;;;;;;5108768;27;20463;-57
2021/03/07 08:38:50;;;;;;;1.98;1.40;;;18.30;47.70;;;;;;5126874;27;20180;-59
2021/03/07 08:41:16;;;;;;;2.30;1.77;;;18.30;47.80;;;;;;5127038;27;20626;-56
2021/03/07 08:43:43;;;;;;;2.90;1.20;;;18.40;47.80;;;;;;5126827;27;20545;-61
2021/03/07 08:46:13;;;;;;;2.72;1.27;;;18.50;48.30;;;;;;5126804;27;20582;-60
2021/03/07 08:48:41;;;;;;;1.17;1.08;;;18.50;47.60;;;;;;5126665;27;20211;-61
2021/03/07 08:51:07;;;;;;;1.52;1.08;;;18.50;47.60;;;;;;5126793;27;20173;-62
2021/03/07 08:53:33;;;;;;;1.90;1.02;;;18.40;47.60;;;;;;5126842;27;20633;-60
2021/03/07 08:55:59;;;;;;;1.92;1.20;;;18.30;47.60;;;;;;5126519;27;20614;-58
2021/03/07 08:58:25;;;;;;;6.40;1.38;;;18.20;48.00;;;;;;5121429;27;20184;-60
2021/03/07 09:00:53;;;;;;;5.47;1.55;;;18.20;48.30;;;;;;5104987;28;20181;-60
2021/03/07 09:03:19;;;;;;;2.15;1.42;;;18.20;48.40;;;;;;5105119;28;20192;-57
2021/03/07 09:05:44;;;;;;;2.38;1.27;;;18.20;48.40;;;;;;5104589;28;20177;-58
2021/03/07 09:08:10;;;;;;;5.13;1.15;;;18.30;48.40;;;;;;5104553;28;20227;-60
2021/03/07 09:10:39;;;;;;;2.22;1.10;;;18.30;48.40;;;;;;5105706;28;20537;-62
2021/03/07 09:13:32;;;;;;;3.33;1.40;;;18.40;48.50;;;;;;5105338;28;20650;-60
2021/03/07 09:16:02;;;;;;;1.58;1.40;;;18.40;48.20;;;;;;5100943;28;20185;-60
2021/03/07 09:18:28;;;;;;;2.80;1.17;;;18.40;48.30;;;;;;5104892;28;20195;-61
2021/03/07 09:20:58;;;;;;;1.35;1.20;;;18.40;48.40;;;;;;5104375;28;20248;-62
2021/03/07 09:23:36;;;;;;;2.08;1.60;;;18.40;48.60;;;;;;5104500;28;20169;-61
2021/03/07 09:26:08;;;;;;;1.05;0.95;;;18.30;48.70;;;;;;5104679;28;20176;-61
2021/03/07 09:28:47;;;;;;;2.70;1.52;;;18.30;48.80;;;;;;5104522;28;20196;-61
2021/03/07 09:31:17;;;;;;;2.10;1.00;;;18.20;48.80;;;;;;5102642;28;20645;-61
2021/03/07 09:33:54;;;;;;;1.52;1.17;;;18.20;48.80;;;;;;5104974;28;20177;-58
2021/03/07 09:36:20;;;;;;;1.85;1.50;;;18.30;48.90;;;;;;5105238;28;20574;-61
2021/03/07 09:38:59;;;;;;;2.63;1.30;;;18.30;48.70;;;;;;5105744;28;20180;-60
2021/03/07 09:41:44;;;;;;;3.42;1.20;;;18.30;48.40;;;;;;5086852;28;20180;-55
2021/03/07 09:44:17;;;;;;;3.45;1.42;;;18.30;48.20;;;;;;5105265;28;20195;-61
2021/03/07 09:46:47;;;;;;;2.22;1.20;;;18.30;47.90;;;;;;5086633;28;20165;-61
2021/03/07 09:49:14;;;;;;;3.10;1.85;;;18.30;47.90;;;;;;5086811;28;20315;-61
2021/03/07 09:51:40;;;;;;;3.03;1.08;;;18.30;48.00;;;;;;5104903;28;20173;-62
2021/03/07 09:54:09;;;;;;;2.45;1.00;;;18.30;48.10;;;;;;5086634;28;20165;-62
2021/03/07 09:56:35;;;;;;;3.53;1.45;;;18.30;48.10;;;;;;5104678;28;20184;-60
2021/03/07 09:59:17;;;;;;;4.10;1.02;;;18.30;48.10;;;;;;5104604;28;20177;-60
2021/03/07 10:01:50;;;;;;;1.95;1.15;;;18.40;48.20;;;;;;5071025;28;20205;-59
2021/03/07 10:04:27;;;;;;;1.75;0.80;;;18.40;48.40;;;;;;5087239;28;20197;-61
2021/03/07 10:06:53;;;;;;;6.30;1.30;;;18.40;48.40;;;;;;5104880;28;20272;-59
2021/03/07 10:09:18;;;;;;;2.97;1.20;;;18.40;48.40;;;;;;5104678;28;20304;-61
2021/03/07 10:12:06;;;;;;;1.20;1.10;;;18.40;48.40;;;;;;5104662;28;20225;-61
2021/03/07 10:14:32;;;;;;;3.45;1.52;;;18.40;48.40;;;;;;5104785;28;20177;-61
2021/03/07 10:17:00;;;;;;;3.63;1.27;;;18.40;48.50;;;;;;5104249;28;20212;-63
2021/03/07 10:19:36;;;;;;;1.95;1.20;;;18.30;48.60;;;;;;5104551;28;20176;-62
2021/03/07 10:22:03;;;;;;;1.33;1.05;;;18.30;48.70;;;;;;5104596;28;20179;-62
2021/03/07 10:24:29;;;;;;;3.92;1.10;;;18.20;48.80;;;;;;5086321;28;20552;-61
2021/03/07 10:26:58;;;;;;;4.85;1.40;;;18.20;48.90;;;;;;5086298;28;20213;-61
2021/03/07 10:29:38;;;;;;;2.17;1.00;;;18.20;49.00;;;;;;5087164;28;20239;-62
2021/03/07 10:32:11;;;;;;;3.38;1.35;;;18.20;49.10;;;;;;5104545;28;20168;-61
2021/03/07 10:34:41;;;;;;;2.50;1.00;;;18.30;49.10;;;;;;5104367;28;20284;-61
2021/03/07 10:37:07;;;;;;;4.18;1.17;;;18.40;48.80;;;;;;5104226;28;20284;-60
2021/03/07 10:39:33;;;;;;;1.38;1.10;;;18.50;48.70;;;;;;5104328;28;20173;-65
2021/03/07 10:42:06;;;;;;;3.53;1.10;;;18.60;48.70;;;;;;5086119;28;20224;-60
2021/03/07 10:44:31;;;;;;;4.20;1.27;;;18.70;48.50;;;;;;5086578;28;20998;-62
2021/03/07 10:46:57;;;;;;;2.53;1.20;;;18.80;48.50;;;;;;5104254;28;20170;-62
2021/03/07 10:49:23;;;;;;;4.80;1.42;;;18.90;48.40;;;;;;5069023;28;20480;-60
2021/03/07 10:51:48;;;;;;;1.67;0.90;;;19.10;48.30;;;;;;5086054;28;20927;-61
2021/03/07 10:54:14;;;;;;;1.58;0.80;;;19.20;48.20;;;;;;5103980;28;20177;-62
2021/03/07 10:56:42;;;;;;;1.17;0.80;;;19.30;48.00;;;;;;5107466;28;20184;-60
2021/03/07 10:59:09;;;;;;;1.40;1.08;;;19.40;47.90;;;;;;5108240;28;20281;-62
2021/03/07 11:01:35;;;;;;;2.20;1.02;;;19.50;47.80;;;;;;5089772;28;20206;-60
2021/03/07 11:04:01;;;;;;;2.58;1.08;;;19.50;47.80;;;;;;5089667;28;20296;-60
2021/03/07 11:06:26;;;;;;;3.65;0.90;;;19.60;47.70;;;;;;5108177;28;20305;-62
2021/03/07 11:08:52;;;;;;;2.00;0.98;;;19.60;47.60;;;;;;5107770;28;20655;-62
2021/03/07 11:11:18;;;;;;;2.30;0.82;;;19.70;47.50;;;;;;5107891;28;20169;-62
2021/03/07 11:13:43;;;;;;;2.35;0.90;;;19.70;47.50;;;;;;5108134;28;20173;-61
2021/03/07 11:16:09;;;;;;;3.00;1.00;;;19.80;47.20;;;;;;5108061;28;21106;-63
2021/03/07 11:18:35;;;;;;;4.40;0.90;;;19.80;47.00;;;;;;5108099;28;20181;-64
2021/03/07 11:21:00;;;;;;;2.05;1.10;;;19.60;47.80;;;;;;5089731;28;20272;-63
2021/03/07 11:23:26;;;;;;;1.50;1.00;;;19.50;47.30;;;;;;5107785;28;20276;-61
2021/03/07 11:25:52;;;;;;;3.75;0.90;;;19.40;47.50;;;;;;5107844;28;20994;-61
2021/03/07 11:28:17;;;;;;;3.65;1.20;;;19.40;47.60;;;;;;5107623;28;20337;-61
2021/03/07 11:30:43;;;;;;;2.20;1.30;;;19.30;48.00;;;;;;5107652;28;20165;-61
2021/03/07 11:33:08;;;;;;;2.25;0.98;;;19.20;48.00;;;;;;5107696;28;20165;-61
2021/03/07 11:35:34;;;;;;;2.13;0.80;;;19.10;48.10;;;;;;5107620;28;20674;-61
2021/03/07 11:37:59;;;;;;;3.33;1.25;;;19.10;48.40;;;;;;5107823;28;20545;-60
2021/03/07 11:40:26;;;;;;;2.72;0.98;;;19.10;48.50;;;;;;5107490;28;20319;-60
2021/03/07 11:42:52;;;;;;;1.67;0.90;;;19.00;48.40;;;;;;5107619;28;20201;-61
2021/03/07 11:45:18;;;;;;;2.92;1.02;;;19.10;48.50;;;;;;5107386;28;20256;-62
2021/03/07 11:47:43;;;;;;;3.03;1.10;;;19.10;48.50;;;;;;5089116;28;20331;-62
2021/03/07 11:50:09;;;;;;;1.52;0.80;;;19.10;48.50;;;;;;5107140;28;20637;-61
2021/03/07 11:52:35;;;;;;;3.40;0.80;;;19.10;48.50;;;;;;5107235;28;20173;-62
2021/03/07 11:55:01;;;;;;;1.92;1.02;;;19.00;48.50;;;;;;5107067;28;20177;-60
2021/03/07 11:57:26;;;;;;;2.28;1.13;;;18.90;48.80;;;;;;5088764;28;20216;-60
2021/03/07 11:59:52;;;;;;;2.15;0.90;;;19.00;48.60;;;;;;5107247;28;20207;-61
2021/03/07 12:02:17;;;;;;;1.25;1.00;;;18.90;48.40;;;;;;5107328;28;20173;-61
2021/03/07 12:04:43;;;;;;;3.83;1.23;;;18.90;48.40;;;;;;5107120;28;20212;-61
2021/03/07 12:07:08;;;;;;;2.70;0.88;;;19.10;48.40;;;;;;5105872;28;20632;-61
2021/03/07 12:09:34;;;;;;;0.93;0.90;;;19.10;48.30;;;;;;5107471;28;20213;-61
2021/03/07 12:12:00;;;;;;;1.42;0.63;;;19.10;48.50;;;;;;5111569;27;20626;-61
2021/03/07 12:14:26;;;;;;;3.53;0.88;;;19.10;48.40;;;;;;5109555;27;20574;-62
2021/03/07 12:16:53;;;;;;;2.13;0.80;;;19.00;48.30;;;;;;5126235;27;20231;-62
2021/03/07 12:19:19;;;;;;;2.58;0.77;;;19.00;48.40;;;;;;5122682;27;20176;-61
2021/03/07 12:21:44;;;;;;;5.40;0.82;;;19.00;48.40;;;;;;5106633;28;20656;-62
2021/03/07 12:24:10;;;;;;;0.55;0.55;;;18.90;48.40;;;;;;5106770;28;20181;-62
2021/03/07 12:26:36;;;;;;;2.47;0.70;;;18.90;48.40;;;;;;5106587;28;20173;-62
2021/03/07 12:29:01;;;;;;;2.42;0.93;;;18.80;48.50;;;;;;5099255;28;20667;-61
2021/03/07 12:31:27;;;;;;;3.55;0.82;;;18.80;48.50;;;;;;5093875;28;20184;-61
2021/03/07 12:33:52;;;;;;;2.67;0.80;;;18.80;49.20;;;;;;5100736;28;20201;-62
2021/03/07 12:36:18;;;;;;;0.73;0.60;;;19.00;48.50;;;;;;5088266;28;20173;-60
2021/03/07 12:38:43;;;;;;;0.95;0.60;;;19.10;48.30;;;;;;5086654;28;20237;-60
2021/03/07 12:41:09;;;;;;;0.77;0.38;;;19.00;48.40;;;;;;5086461;28;20623;-61
2021/03/07 12:43:35;;;;;;;0.73;0.60;;;19.00;48.40;;;;;;5085744;28;20174;-61
2021/03/07 12:46:00;;;;;;;1.13;0.60;;;18.90;48.40;;;;;;5094608;28;20577;-60
2021/03/07 12:48:26;;;;;;;0.75;0.52;;;18.90;48.40;;;;;;5105988;28;20212;-62
2021/03/07 12:50:51;;;;;;;1.58;0.60;;;18.80;48.40;;;;;;5106197;28;20184;-62